createdAt,value
2022-09-30T00:01:10.844Z,8.30
2022-09-30T00:03:37.533Z,8.30
2022-09-30T00:06:08.768Z,8.30
2022-09-30T00:08:39.422Z,8.20
2022-09-30T00:11:16.303Z,8.30
2022-09-30T00:13:43.753Z,8.30
2022-09-30T00:16:11.611Z,8.30
2022-09-30T00:18:39.563Z,8.30
2022-09-30T00:21:08.217Z,8.30
2022-09-30T00:23:37.868Z,8.20
2022-09-30T00:26:08.171Z,8.20
2022-09-30T00:28:35.169Z,8.30
2022-09-30T00:31:04.363Z,8.30
2022-09-30T00:33:31.369Z,8.30
2022-09-30T00:35:58.019Z,8.20
2022-09-30T00:38:24.778Z,8.10
2022-09-30T00:40:52.159Z,8.20
2022-09-30T00:43:37.532Z,8.10
2022-09-30T00:46:05.393Z,8.20
2022-09-30T00:48:38.488Z,8.20
2022-09-30T00:51:07.358Z,8.20
2022-09-30T00:53:50.529Z,8.20
2022-09-30T00:56:31.393Z,8.20
2022-09-30T00:59:12.779Z,8.20
2022-09-30T01:01:41.185Z,8.20
2022-09-30T01:04:14.857Z,8.20
2022-09-30T01:06:42.693Z,8.20
2022-09-30T01:09:10.410Z,8.20
2022-09-30T01:11:37.159Z,8.20
2022-09-30T01:14:24.367Z,8.20
2022-09-30T01:17:21.629Z,8.20
2022-09-30T01:19:52.053Z,8.20
2022-09-30T01:22:43.276Z,8.20
2022-09-30T01:25:41.276Z,8.20
2022-09-30T01:28:29.908Z,8.20
2022-09-30T01:31:02.549Z,8.20
2022-09-30T01:33:59.058Z,8.20
2022-09-30T01:36:43.205Z,8.10
2022-09-30T01:39:38.258Z,8.20
2022-09-30T01:42:17.357Z,8.20
2022-09-30T01:44:54.994Z,8.30
2022-09-30T01:47:27.226Z,8.30
2022-09-30T01:50:09.698Z,8.30
2022-09-30T01:52:49.282Z,8.30
2022-09-30T01:55:27.155Z,8.30
2022-09-30T01:58:16.323Z,8.30
2022-09-30T02:00:50.560Z,8.30
2022-09-30T02:03:33.256Z,8.30
2022-09-30T02:06:12.056Z,8.40
2022-09-30T02:08:44.870Z,8.30
2022-09-30T02:11:20.123Z,8.30
2022-09-30T02:13:59.310Z,8.30
2022-09-30T02:16:38.592Z,8.40
2022-09-30T02:19:16.882Z,8.40
2022-09-30T02:21:48.119Z,8.40
2022-09-30T02:24:18.273Z,8.40
2022-09-30T02:26:47.198Z,8.30
2022-09-30T02:29:20.665Z,8.30
2022-09-30T02:31:53.153Z,8.30
2022-09-30T02:34:32.917Z,8.30
2022-09-30T02:37:14.675Z,8.40
2022-09-30T02:40:10.353Z,8.30
2022-09-30T02:42:38.667Z,8.30
2022-09-30T02:45:11.823Z,8.30
2022-09-30T02:48:19.158Z,8.40
2022-09-30T02:51:00.539Z,8.40
2022-09-30T02:53:36.199Z,8.30
2022-09-30T02:56:21.707Z,8.40
2022-09-30T02:58:51.495Z,8.30
2022-09-30T03:01:18.435Z,8.30
2022-09-30T03:03:55.193Z,8.40
2022-09-30T03:06:22.101Z,8.40
2022-09-30T03:08:48.880Z,8.50
2022-09-30T03:11:21.941Z,8.40
2022-09-30T03:14:06.396Z,8.40
2022-09-30T03:16:53.416Z,8.40
2022-09-30T03:19:33.920Z,8.40
2022-09-30T03:22:23.501Z,8.40
2022-09-30T03:25:14.205Z,8.40
2022-09-30T03:28:04.805Z,8.40
2022-09-30T03:30:34.844Z,8.40
2022-09-30T03:33:23.124Z,8.40
2022-09-30T03:36:05.472Z,8.40
2022-09-30T03:38:41.358Z,8.50
2022-09-30T03:41:28.386Z,8.50
2022-09-30T03:44:04.192Z,8.40
2022-09-30T03:46:47.755Z,8.40
2022-09-30T03:49:21.132Z,8.40
2022-09-30T03:51:50.726Z,8.40
2022-09-30T03:54:17.943Z,8.30
2022-09-30T03:56:44.596Z,8.30
2022-09-30T03:59:25.011Z,8.30
2022-09-30T04:01:52.415Z,8.30
2022-09-30T04:04:19.286Z,8.30
2022-09-30T04:06:46.953Z,8.30
2022-09-30T04:09:13.844Z,8.30
2022-09-30T04:11:40.615Z,8.20
2022-09-30T04:14:07.336Z,8.20
2022-09-30T04:16:34.233Z,8.10
2022-09-30T04:19:01.569Z,8.00
2022-09-30T04:21:28.800Z,8.00
2022-09-30T04:23:56.080Z,8.00
2022-09-30T04:26:22.995Z,7.90
2022-09-30T04:28:50.357Z,8.00
2022-09-30T04:31:17.690Z,8.00
2022-09-30T04:33:45.169Z,8.00
2022-09-30T04:36:11.779Z,8.10
2022-09-30T04:38:39.206Z,8.10
2022-09-30T04:41:07.169Z,8.10
2022-09-30T04:43:34.413Z,8.10
2022-09-30T04:46:01.348Z,8.10
2022-09-30T04:48:30.261Z,8.10
2022-09-30T04:50:59.850Z,8.00
2022-09-30T04:53:26.684Z,8.00
2022-09-30T04:55:59.736Z,8.00
2022-09-30T04:58:26.841Z,8.00
2022-09-30T05:01:07.511Z,8.10
2022-09-30T05:03:35.082Z,8.10
2022-09-30T05:06:03.068Z,8.10
2022-09-30T05:08:29.740Z,8.10
2022-09-30T05:11:03.073Z,8.10
2022-09-30T05:13:35.091Z,8.10
2022-09-30T05:16:02.676Z,8.20
2022-09-30T05:18:29.897Z,8.20
2022-09-30T05:20:57.990Z,8.20
2022-09-30T05:23:26.279Z,8.20
2022-09-30T05:25:53.842Z,8.20
2022-09-30T05:28:20.925Z,8.20
2022-09-30T05:30:48.032Z,8.10
2022-09-30T05:33:14.881Z,8.10
2022-09-30T05:35:42.878Z,8.10
2022-09-30T05:38:10.845Z,8.10
2022-09-30T05:40:41.920Z,8.20
2022-09-30T05:43:09.816Z,8.20
2022-09-30T05:45:38.332Z,8.20
2022-09-30T05:48:05.118Z,8.20
2022-09-30T05:50:32.028Z,8.30
2022-09-30T05:52:58.706Z,8.30
2022-09-30T05:55:25.539Z,8.30
2022-09-30T05:57:52.768Z,8.30
2022-09-30T06:00:20.144Z,8.30
2022-09-30T06:02:50.772Z,8.30
2022-09-30T06:05:17.611Z,8.40
2022-09-30T06:07:44.281Z,8.40
2022-09-30T06:10:12.313Z,8.50
2022-09-30T06:12:39.641Z,8.50
2022-09-30T06:15:06.560Z,8.50
2022-09-30T06:17:33.785Z,8.50
2022-09-30T06:20:01.000Z,8.60
2022-09-30T06:22:27.669Z,8.60
2022-09-30T06:24:55.424Z,8.50
2022-09-30T06:27:22.472Z,8.60
2022-09-30T06:29:49.383Z,8.60
2022-09-30T06:32:16.794Z,8.70
2022-09-30T06:34:44.050Z,8.70
2022-09-30T06:37:13.719Z,8.80
2022-09-30T06:39:41.820Z,8.90
2022-09-30T06:42:08.504Z,9.00
2022-09-30T06:44:46.246Z,9.00
2022-09-30T06:47:24.545Z,9.10
2022-09-30T06:49:52.982Z,9.20
2022-09-30T06:52:20.327Z,9.20
2022-09-30T06:54:47.200Z,9.20
2022-09-30T06:57:13.988Z,9.30
2022-09-30T06:59:40.698Z,9.30
2022-09-30T07:02:09.009Z,9.30
2022-09-30T07:04:35.738Z,9.40
2022-09-30T07:07:02.942Z,9.50
2022-09-30T07:09:29.669Z,9.50
2022-09-30T07:11:56.353Z,9.60
2022-09-30T07:14:24.010Z,9.70
2022-09-30T07:16:57.281Z,9.80
2022-09-30T07:19:24.166Z,9.90
2022-09-30T07:21:50.911Z,9.90
2022-09-30T07:24:18.171Z,9.90
2022-09-30T07:26:45.349Z,9.90
2022-09-30T07:29:13.826Z,9.80
2022-09-30T07:31:41.261Z,9.80
2022-09-30T07:34:09.494Z,9.80
2022-09-30T07:36:41.712Z,9.80
2022-09-30T07:39:10.033Z,9.90
2022-09-30T07:41:39.529Z,10.00
2022-09-30T07:44:14.096Z,9.90
2022-09-30T07:46:42.830Z,9.90
2022-09-30T07:49:14.721Z,10.00
2022-09-30T07:51:45.882Z,10.10
2022-09-30T07:54:16.578Z,10.30
2022-09-30T07:59:32.706Z,10.40
2022-09-30T08:02:24.704Z,10.40
2022-09-30T08:04:51.482Z,10.60
2022-09-30T08:07:19.439Z,10.60
2022-09-30T08:09:46.176Z,10.80
2022-09-30T08:12:12.860Z,10.90
2022-09-30T08:14:39.564Z,11.00
2022-09-30T08:17:06.343Z,11.00
2022-09-30T08:19:33.868Z,11.10
2022-09-30T08:22:00.901Z,11.30
2022-09-30T08:24:27.875Z,11.40
2022-09-30T08:26:55.662Z,11.30
2022-09-30T08:29:50.066Z,11.30
2022-09-30T08:32:09.422Z,11.40
2022-09-30T08:34:36.224Z,11.60
2022-09-30T08:37:08.887Z,11.70
2022-09-30T08:39:40.019Z,11.70
2022-09-30T08:42:37.941Z,11.90
2022-09-30T08:45:34.668Z,12.10
2022-09-30T08:51:21.080Z,12.20
2022-09-30T08:53:48.915Z,12.20
2022-09-30T08:56:25.691Z,12.20
2022-09-30T08:58:57.022Z,12.20
2022-09-30T09:01:34.218Z,12.40
2022-09-30T09:04:02.589Z,12.40
2022-09-30T09:06:52.633Z,12.40
2022-09-30T09:09:51.279Z,12.40
2022-09-30T09:12:43.882Z,12.50
2022-09-30T09:15:29.358Z,12.60
2022-09-30T09:18:23.307Z,12.60
2022-09-30T09:20:54.455Z,12.70
2022-09-30T09:23:22.022Z,12.80
2022-09-30T09:25:52.981Z,12.70
2022-09-30T09:28:37.007Z,12.80
2022-09-30T09:31:04.799Z,12.90
2022-09-30T09:33:36.413Z,13.00
2022-09-30T09:36:18.454Z,13.30
2022-09-30T09:39:07.387Z,13.40
2022-09-30T09:42:03.257Z,13.40
2022-09-30T09:44:42.908Z,13.40
2022-09-30T09:47:15.805Z,13.50
2022-09-30T09:49:45.330Z,13.40
2022-09-30T09:52:14.992Z,13.40
2022-09-30T09:54:44.355Z,13.50
2022-09-30T09:57:17.801Z,13.40
2022-09-30T10:00:22.259Z,13.40
2022-09-30T10:03:04.783Z,13.50
2022-09-30T10:05:39.504Z,13.60
2022-09-30T10:08:22.915Z,13.60
2022-09-30T10:10:49.576Z,13.40
2022-09-30T10:13:23.393Z,13.30
2022-09-30T10:15:53.780Z,13.30
2022-09-30T10:18:33.242Z,13.20
2022-09-30T10:21:20.454Z,13.10
2022-09-30T10:23:47.327Z,13.00
2022-09-30T10:26:14.017Z,12.90
2022-09-30T10:28:48.765Z,12.80
2022-09-30T10:31:24.184Z,12.60
2022-09-30T10:33:57.051Z,12.60
2022-09-30T10:36:31.751Z,12.70
2022-09-30T10:39:04.189Z,12.90
2022-09-30T10:41:35.724Z,13.00
2022-09-30T10:44:13.690Z,13.00
2022-09-30T10:46:41.229Z,13.20
2022-09-30T10:49:24.545Z,13.30
2022-09-30T10:51:51.528Z,13.60
2022-09-30T10:54:54.944Z,13.80
2022-09-30T10:57:24.068Z,14.00
2022-09-30T10:59:57.611Z,14.00
2022-09-30T11:03:03.232Z,14.00
2022-09-30T11:05:43.205Z,13.90
2022-09-30T11:08:26.524Z,13.80
2022-09-30T11:11:14.465Z,13.90
2022-09-30T11:13:54.615Z,14.00
2022-09-30T11:16:32.340Z,13.80
2022-09-30T11:19:10.060Z,13.70
2022-09-30T11:21:45.796Z,13.60
2022-09-30T11:24:31.254Z,13.50
2022-09-30T11:27:24.967Z,13.40
2022-09-30T11:30:20.924Z,13.40
2022-09-30T11:33:21.735Z,13.40
2022-09-30T11:35:56.451Z,13.50
2022-09-30T11:38:50.474Z,13.70
2022-09-30T11:41:33.628Z,13.80
2022-09-30T11:44:18.197Z,14.00
2022-09-30T11:47:03.449Z,14.10
2022-09-30T11:49:55.127Z,14.20
2022-09-30T11:52:27.133Z,14.30
2022-09-30T11:55:22.081Z,14.30
2022-09-30T11:58:28.688Z,14.20
2022-09-30T12:01:14.385Z,14.20
2022-09-30T12:03:47.966Z,14.20
2022-09-30T12:06:27.418Z,14.20
2022-09-30T12:09:01.197Z,14.20
2022-09-30T12:11:28.761Z,14.20
2022-09-30T12:14:00.679Z,14.10
2022-09-30T12:16:31.941Z,14.00
2022-09-30T12:19:13.426Z,14.00
2022-09-30T12:21:49.519Z,14.00
2022-09-30T12:24:36.899Z,13.90
2022-09-30T12:27:21.375Z,14.10
2022-09-30T12:30:20.341Z,14.30
2022-09-30T12:32:59.429Z,14.40
2022-09-30T12:35:43.315Z,14.50
2022-09-30T12:38:27.691Z,14.40
2022-09-30T12:41:17.505Z,14.30
2022-09-30T12:44:01.974Z,14.30
2022-09-30T12:46:59.009Z,14.30
2022-09-30T12:49:29.368Z,14.20
2022-09-30T12:52:05.460Z,14.10
2022-09-30T12:54:40.413Z,14.30
2022-09-30T12:57:09.657Z,14.40
2022-09-30T12:59:44.657Z,14.50
2022-09-30T13:02:28.961Z,14.50
2022-09-30T13:05:44.643Z,14.50
2022-09-30T13:08:18.638Z,14.70
2022-09-30T13:10:57.956Z,14.60
2022-09-30T13:13:28.963Z,14.50
2022-09-30T13:16:03.010Z,14.40
2022-09-30T13:18:32.736Z,14.30
2022-09-30T13:21:05.299Z,14.30
2022-09-30T13:23:51.390Z,14.30
2022-09-30T13:26:24.284Z,14.40
2022-09-30T13:28:52.917Z,14.40
2022-09-30T13:31:26.615Z,14.40
2022-09-30T13:34:02.275Z,14.30
2022-09-30T13:36:59.053Z,14.20
2022-09-30T13:39:34.105Z,14.20
2022-09-30T13:42:00.730Z,14.30
2022-09-30T13:44:50.157Z,14.30
2022-09-30T13:47:28.156Z,14.30
2022-09-30T13:50:13.374Z,14.40
2022-09-30T13:52:41.893Z,14.40
2022-09-30T13:55:14.487Z,14.30
2022-09-30T13:57:50.275Z,14.30
2022-09-30T14:00:20.121Z,14.30
2022-09-30T14:02:53.057Z,14.30
2022-09-30T14:09:48.554Z,14.40
2022-09-30T14:12:31.467Z,14.50
2022-09-30T14:15:08.401Z,14.60
2022-09-30T14:17:58.157Z,14.60
2022-09-30T14:20:46.545Z,14.60
2022-09-30T14:23:15.114Z,14.50
2022-09-30T14:25:57.083Z,14.30
2022-09-30T14:29:04.520Z,14.20
2022-09-30T14:31:32.254Z,14.10
2022-09-30T14:33:59.429Z,14.20
2022-09-30T14:36:26.310Z,14.20
2022-09-30T14:38:59.852Z,14.20
2022-09-30T14:41:28.206Z,14.30
2022-09-30T14:43:58.723Z,14.30
2022-09-30T14:46:32.312Z,14.40
2022-09-30T14:49:06.683Z,14.40
2022-09-30T14:51:43.354Z,14.40
2022-09-30T14:54:28.765Z,14.20
2022-09-30T14:56:57.516Z,14.10
2022-09-30T14:59:28.720Z,14.10
2022-09-30T15:02:02.263Z,14.00
2022-09-30T15:04:38.865Z,13.80
2022-09-30T15:07:10.946Z,13.70
2022-09-30T15:09:46.027Z,13.60
2022-09-30T15:12:18.068Z,13.50
2022-09-30T15:14:48.881Z,13.40
2022-09-30T15:17:22.097Z,13.40
2022-09-30T15:19:50.239Z,13.30
2022-09-30T15:22:18.273Z,13.30
2022-09-30T15:24:47.300Z,13.20
2022-09-30T15:27:23.458Z,13.20
2022-09-30T15:30:01.561Z,13.20
2022-09-30T15:32:32.613Z,13.30
2022-09-30T15:35:15.483Z,13.30
2022-09-30T15:37:43.443Z,13.20
2022-09-30T15:40:37.953Z,13.30
2022-09-30T15:43:07.692Z,13.20
2022-09-30T15:45:43.799Z,13.20
2022-09-30T15:48:13.218Z,13.20
2022-09-30T15:50:48.937Z,13.20
2022-09-30T15:53:25.443Z,13.20
2022-09-30T15:55:59.892Z,13.10
2022-09-30T15:58:26.645Z,13.00
2022-09-30T16:01:17.478Z,13.10
2022-09-30T16:04:02.628Z,13.00
2022-09-30T16:06:48.208Z,12.90
2022-09-30T16:09:17.639Z,12.90
2022-09-30T16:11:56.111Z,12.80
2022-09-30T16:14:31.724Z,12.80
2022-09-30T16:17:00.945Z,12.70
2022-09-30T16:19:29.849Z,12.60
2022-09-30T16:21:57.540Z,12.60
2022-09-30T16:24:28.299Z,12.50
2022-09-30T16:26:56.738Z,12.60
2022-09-30T16:29:25.745Z,12.50
2022-09-30T16:31:55.569Z,12.40
2022-09-30T16:34:23.766Z,12.50
2022-09-30T16:36:52.543Z,12.30
2022-09-30T16:39:19.911Z,12.20
2022-09-30T16:41:46.765Z,12.20
2022-09-30T16:44:13.844Z,12.20
2022-09-30T16:46:40.575Z,12.10
2022-09-30T16:49:16.215Z,12.10
2022-09-30T16:51:43.662Z,12.10
2022-09-30T16:54:11.407Z,12.00
2022-09-30T16:56:38.668Z,12.00
2022-09-30T16:59:14.285Z,11.90
2022-09-30T17:01:41.790Z,11.80
2022-09-30T17:04:12.885Z,11.80
2022-09-30T17:06:42.011Z,11.80
2022-09-30T17:09:08.693Z,11.70
2022-09-30T17:11:36.265Z,11.70
2022-09-30T17:14:04.499Z,11.70
2022-09-30T17:16:32.018Z,11.80
2022-09-30T17:18:58.987Z,11.60
2022-09-30T17:21:27.267Z,11.60
2022-09-30T17:23:57.971Z,11.70
2022-09-30T17:26:24.669Z,11.60
2022-09-30T17:28:51.316Z,11.70
2022-09-30T17:31:18.001Z,11.60
2022-09-30T17:33:44.749Z,11.70
2022-09-30T17:36:13.162Z,11.60
2022-09-30T17:38:40.212Z,11.60
2022-09-30T17:41:26.216Z,11.60
2022-09-30T17:43:52.945Z,11.60
2022-09-30T17:46:23.194Z,11.60
2022-09-30T17:48:54.206Z,11.50
2022-09-30T17:51:20.957Z,11.50
2022-09-30T17:53:48.186Z,11.50
2022-09-30T17:56:20.404Z,11.50
2022-09-30T17:58:49.054Z,11.50
2022-09-30T18:01:17.695Z,11.50
2022-09-30T18:03:45.759Z,11.50
2022-09-30T18:06:14.404Z,11.50
2022-09-30T18:08:41.181Z,11.40
2022-09-30T18:11:07.923Z,11.40
2022-09-30T18:13:34.848Z,11.40
2022-09-30T18:16:06.802Z,11.40
2022-09-30T18:18:36.657Z,11.40
2022-09-30T18:21:03.572Z,11.40
2022-09-30T18:23:30.278Z,11.40
2022-09-30T18:25:57.998Z,11.40
2022-09-30T18:28:25.000Z,11.40
2022-09-30T18:30:51.795Z,11.40
2022-09-30T18:33:21.481Z,11.40
2022-09-30T18:35:48.554Z,11.40
2022-09-30T18:38:15.228Z,11.40
2022-09-30T18:40:43.481Z,11.40
2022-09-30T18:43:13.369Z,11.40
2022-09-30T18:45:40.412Z,11.40
2022-09-30T18:48:07.706Z,11.50
2022-09-30T18:50:34.648Z,11.40
2022-09-30T18:53:09.066Z,11.40
2022-09-30T18:55:38.010Z,11.30
2022-09-30T18:58:05.987Z,11.30
2022-09-30T19:00:32.927Z,11.30
2022-09-30T19:02:59.659Z,11.30
2022-09-30T19:05:26.992Z,11.30
2022-09-30T19:07:53.924Z,11.30
2022-09-30T19:10:21.008Z,11.30
2022-09-30T19:12:47.764Z,11.20
2022-09-30T19:15:16.000Z,11.10
2022-09-30T19:17:43.845Z,11.10
2022-09-30T19:20:11.672Z,11.10
2022-09-30T19:22:38.391Z,11.10
2022-09-30T19:25:06.867Z,11.10
2022-09-30T19:27:35.977Z,11.10
2022-09-30T19:30:02.936Z,11.10
2022-09-30T19:32:34.268Z,11.20
2022-09-30T19:35:06.423Z,11.20
2022-09-30T19:37:34.385Z,11.20
2022-09-30T19:40:11.867Z,11.20
2022-09-30T19:42:44.201Z,11.20
2022-09-30T19:45:11.120Z,11.10
2022-09-30T19:47:37.866Z,11.10
2022-09-30T19:50:05.599Z,11.10
2022-09-30T19:52:33.904Z,11.10
2022-09-30T19:55:12.018Z,11.00
2022-09-30T19:57:42.618Z,11.00
2022-09-30T20:00:12.869Z,11.00
2022-09-30T20:02:39.723Z,11.00
2022-09-30T20:05:07.153Z,11.00
2022-09-30T20:07:35.204Z,11.00
2022-09-30T20:10:02.263Z,11.00
2022-09-30T20:12:29.230Z,11.00
2022-09-30T20:15:14.520Z,11.00
2022-09-30T20:17:41.197Z,11.00
2022-09-30T20:20:27.063Z,11.00
2022-09-30T20:22:53.749Z,11.00
2022-09-30T20:25:20.539Z,11.00
2022-09-30T20:27:51.364Z,11.10
2022-09-30T20:30:20.024Z,11.10
2022-09-30T20:32:46.792Z,11.10
2022-09-30T20:35:13.883Z,11.10
2022-09-30T20:37:42.038Z,11.00
2022-09-30T20:40:09.475Z,11.00
2022-09-30T20:42:38.273Z,10.90
2022-09-30T20:45:10.031Z,10.90
2022-09-30T20:47:38.420Z,10.90
2022-09-30T20:50:06.339Z,10.90
2022-09-30T20:52:33.053Z,10.90
2022-09-30T20:55:00.218Z,10.90
2022-09-30T20:57:30.494Z,10.90
2022-09-30T20:59:59.923Z,11.00
2022-09-30T21:02:29.939Z,11.00
2022-09-30T21:04:58.154Z,11.10
2022-09-30T21:07:26.166Z,11.10
2022-09-30T21:09:52.960Z,11.10
2022-09-30T21:12:19.700Z,11.10
2022-09-30T21:14:46.574Z,11.00
2022-09-30T21:17:13.411Z,11.00
2022-09-30T21:19:40.131Z,11.10
2022-09-30T21:22:07.095Z,11.00
2022-09-30T21:24:33.853Z,11.00
2022-09-30T21:27:01.562Z,11.00
2022-09-30T21:29:30.433Z,10.90
2022-09-30T21:31:57.231Z,10.90
2022-09-30T21:34:24.404Z,10.90
2022-09-30T21:36:51.156Z,10.80
2022-09-30T21:39:17.953Z,10.80
2022-09-30T21:41:45.565Z,10.90
2022-09-30T21:44:12.299Z,10.90
2022-09-30T21:46:39.187Z,10.90
2022-09-30T21:49:15.122Z,10.90
2022-09-30T21:51:41.845Z,10.80
2022-09-30T21:54:11.514Z,10.80
2022-09-30T21:56:39.061Z,10.80
2022-09-30T21:59:05.909Z,10.80
2022-09-30T22:01:33.368Z,10.80
2022-09-30T22:04:00.491Z,10.80
2022-09-30T22:06:28.468Z,10.80
2022-09-30T22:08:55.152Z,10.80
2022-09-30T22:11:24.608Z,10.80
2022-09-30T22:13:55.354Z,10.80
2022-09-30T22:16:26.851Z,10.80
2022-09-30T22:19:01.407Z,10.80
2022-09-30T22:21:31.854Z,10.80
2022-09-30T22:24:00.160Z,10.80
2022-09-30T22:26:27.623Z,10.80
2022-09-30T22:29:00.545Z,10.80
2022-09-30T22:31:29.535Z,10.80
2022-09-30T22:34:18.218Z,10.80
2022-09-30T22:37:03.347Z,10.80
2022-09-30T22:39:30.285Z,10.90
2022-09-30T22:41:58.016Z,10.90
2022-09-30T22:44:28.407Z,10.90
2022-09-30T22:46:57.511Z,10.90
2022-09-30T22:49:24.588Z,10.80
2022-09-30T22:51:56.327Z,10.80
2022-09-30T22:54:24.246Z,10.90
2022-09-30T22:56:51.381Z,10.90
2022-09-30T22:59:19.458Z,10.90
2022-09-30T23:01:46.732Z,10.90
2022-09-30T23:04:16.536Z,10.90
2022-09-30T23:06:46.493Z,10.90
2022-09-30T23:09:13.322Z,10.90
2022-09-30T23:11:42.239Z,10.90
2022-09-30T23:14:09.184Z,10.90
2022-09-30T23:16:36.171Z,10.90
2022-09-30T23:19:03.387Z,10.90
2022-09-30T23:21:30.477Z,10.90
2022-09-30T23:23:59.431Z,10.90
2022-09-30T23:26:28.405Z,10.90
2022-09-30T23:29:04.238Z,10.90
2022-09-30T23:31:31.240Z,11.00
2022-09-30T23:34:01.129Z,11.00
2022-09-30T23:36:30.572Z,11.00
2022-09-30T23:39:01.967Z,11.00
2022-09-30T23:41:29.527Z,11.00
2022-09-30T23:43:56.330Z,11.10
2022-09-30T23:46:23.127Z,11.00
2022-09-30T23:48:49.818Z,11.00
2022-09-30T23:51:17.917Z,10.90
2022-09-30T23:53:44.858Z,11.00
2022-09-30T23:56:15.396Z,10.90
2022-09-30T23:58:43.493Z,10.90
